Home > Products > Valid Products > TAF

000
FTUS41 KOKX 011900 AAA
TAFGON
TAF AMD
KGON 011951Z 0120/0218 18008KT P6SM SCT015 BKN250
     FM020000 15004KT P6SM BKN120
     FM020600 11005KT P6SM SCT050 BKN100
     FM020900 09005KT 6SM -SHRA BKN050
     FM021200 07008KT 5SM -SHRA BR SCT015 BKN030=



000
FTUS41 KOKX 011900 AAA
TAFBDR
TAF AMD
KBDR 011951Z 0120/0218 17010KT P6SM FEW050 BKN200
     FM020000 17006KT P6SM BKN120
     FM020600 13005KT P6SM SCT050 BKN100
     FM020800 09005KT 6SM -SHRA BKN050
     FM021100 07008KT 5SM -SHRA BR SCT015 BKN030=



000
FTUS41 KOKX 011900 AAA
TAFSWF
TAF AMD
KSWF 011951Z 0120/0224 17007KT P6SM SCT050 BKN250
      TEMPO 0120/0121 3SM -TSRA BR SCT020CB BKN040
     FM020200 VRB03KT P6SM BKN150
     FM020900 VRB03KT 5SM -SHRA BR SCT050 BKN100
     FM021300 10005KT 5SM -SHRA BKN025 BKN050
     FM022000 08005KT P6SM SCT025 BKN050
      AMD NOT SKED=



000
FTUS41 KOKX 011900 AAA
TAFISP
TAF AMD
KISP 011951Z 0120/0218 17010KT P6SM FEW015 BKN150
     FM020000 17006KT P6SM BKN120
     FM020600 13005KT P6SM SCT050 BKN100
     FM020800 07005KT 6SM -SHRA BKN050
     FM021100 06008KT 5SM -SHRA BR SCT015 BKN030=



000
FTUS41 KOKX 011900 AAB
TAFTEB
TAF AMD
KTEB 011951Z 0120/0218 17008KT P6SM SCT040 BKN120
      TEMPO 0120/0121 3SM -SHRA BR SCT025 BKN040
     FM020200 16005KT P6SM BKN120
     FM020600 VRB03KT P6SM SCT050 BKN100
     FM020800 06005KT 6SM -SHRA BKN050
     FM021100 05007KT 5SM -SHRA BR SCT015 BKN025=



000
FTUS41 KOKX 011900 AAA
TAFJFK
TAF AMD
KJFK 011951Z 0120/0224 16010KT P6SM SCT040 BKN120
      TEMPO 0120/0121 6SM -SHRA BKN010 BKN035
     FM020200 16006KT P6SM BKN120
     FM020600 11005KT P6SM SCT050 BKN100
     FM020800 06007KT 6SM -SHRA BKN050
     FM021100 05012KT 5SM -SHRA BR SCT015 BKN025
     FM022000 08010KT P6SM BKN025=



000
FTUS41 KOKX 011900 AAB
TAFEWR
TAF AMD
KEWR 011951Z 0120/0224 16008KT P6SM SCT040 BKN120
      TEMPO 0120/0121 3SM -SHRA BR SCT025 BKN040
     FM020200 16005KT P6SM BKN120
     FM020600 13004KT P6SM SCT050 BKN100
     FM020800 06005KT 6SM -SHRA BKN050
     FM021100 05008KT 5SM -SHRA BR SCT015 BKN025
     FM022000 07007KT P6SM BKN025=



000
FTUS41 KOKX 011900 AAA
TAFLGA
TAF AMD
KLGA 011951Z 0120/0218 17010KT P6SM SCT040 BKN120
      TEMPO 0120/0121 6SM -SHRA FEW010 SCT025 BKN040
     FM020200 17006KT P6SM BKN120
     FM020600 13005KT P6SM SCT050 BKN100
     FM020800 08007KT 6SM -SHRA BKN050
     FM021100 05010KT 5SM -SHRA BR SCT015 BKN025=



000
FTUS41 KOKX 011800 AAA
TAFTEB
TAF AMD
KTEB 011834Z 0119/0218 17008KT P6SM SCT050 BKN200
      TEMPO 0119/0120 3SM -TSRA BR SCT025CB BKN040
     FM020200 16005KT P6SM BKN120
     FM020600 VRB03KT P6SM SCT050 BKN100
     FM020800 06005KT 6SM -SHRA BKN050
     FM021100 05007KT 5SM -SHRA BR SCT015 BKN025=



000
FTUS41 KOKX 011800 AAA
TAFEWR
TAF AMD
KEWR 011827Z 0118/0224 16008KT P6SM SCT050 BKN200
      TEMPO 0118/0120 3SM -TSRA BR SCT025CB BKN040
     FM020200 16005KT P6SM BKN120
     FM020600 13004KT P6SM SCT050 BKN100
     FM020800 06005KT 6SM -SHRA BKN050
     FM021100 05008KT 5SM -SHRA BR SCT015 BKN025
     FM022000 07007KT P6SM BKN025=



000
FTUS41 KOKX 011800 RRA
TAFGON
TAF
KGON 011801Z 0118/0218 16008KT P6SM BKN250
     FM020000 15004KT P6SM BKN120
     FM020600 11005KT P6SM SCT050 BKN100
     FM020900 09005KT 6SM -SHRA BKN050
     FM021200 07008KT 5SM -SHRA BR SCT015 BKN030=



000
FTUS41 KOKX 011800 RRA
TAFSWF
TAF
KSWF 011801Z 0118/0224 17007KT P6SM SCT050 BKN250
      TEMPO 0118/0120 3SM -TSRA BR SCT020CB BKN040
     FM020200 VRB03KT P6SM BKN150
     FM020900 VRB03KT 5SM -SHRA BR SCT050 BKN100
     FM021300 10005KT 5SM -SHRA BKN025 BKN050
     FM022000 08005KT P6SM SCT025 BKN050
      AMD NOT SKED=



000
FTUS41 KOKX 011700 RRA
TAFISP
TAF
KISP 011746Z 0118/0218 17010KT P6SM FEW025 SCT050 BKN200
     FM020000 17006KT P6SM BKN120
     FM020600 13005KT P6SM SCT050 BKN100
     FM020800 07005KT 6SM -SHRA BKN050
     FM021100 06008KT 5SM -SHRA BR SCT015 BKN030=



000
FTUS41 KOKX 011700 RRA
TAFBDR
TAF
KBDR 011746Z 0118/0218 10008KT P6SM VCSH FEW025 SCT050
     FM012000 17010KT P6SM FEW050 BKN200
     FM020000 17006KT P6SM BKN120
     FM020600 13005KT P6SM SCT050 BKN100
     FM020800 09005KT 6SM -SHRA BKN050
     FM021100 07008KT 5SM -SHRA BR SCT015 BKN030=



000
FTUS41 KOKX 011700
TAFEWR
TAF
KEWR 011729Z 0118/0224 16008KT P6SM SCT050 BKN200
      TEMPO 0118/0120 3SM -SHRA BR SCT025 BKN040
     FM020200 16005KT P6SM BKN120
     FM020600 13004KT P6SM SCT050 BKN100
     FM020800 06005KT 6SM -SHRA BKN050
     FM021100 05008KT 5SM -SHRA BR SCT015 BKN025
     FM022000 07007KT P6SM BKN025=



000
FTUS41 KOKX 011700
TAFJFK
TAF
KJFK 011729Z 0118/0224 17010KT P6SM SCT050 BKN200
      TEMPO 0118/0120 3SM -SHRA BR SCT025 BKN040
     FM020200 16006KT P6SM BKN120
     FM020600 11005KT P6SM SCT050 BKN100
     FM020800 06007KT 6SM -SHRA BKN050
     FM021100 05012KT 5SM -SHRA BR SCT015 BKN025
     FM022000 08010KT P6SM BKN025=



000
FTUS41 KOKX 011700
TAFLGA
TAF
KLGA 011729Z 0118/0218 17009KT P6SM SCT050 BKN200
      TEMPO 0118/0120 3SM -SHRA BR SCT025 BKN040
     FM020200 17006KT P6SM BKN120
     FM020600 13005KT P6SM SCT050 BKN100
     FM020800 08007KT 6SM -SHRA BKN050
     FM021100 05010KT 5SM -SHRA BR SCT015 BKN025=



000
FTUS41 KOKX 011700
TAFTEB
TAF
KTEB 011729Z 0118/0218 16007KT P6SM SCT050 BKN200
      TEMPO 0118/0120 3SM -SHRA BR SCT025 BKN040
     FM020200 16005KT P6SM BKN120
     FM020600 VRB03KT P6SM SCT050 BKN100
     FM020800 06005KT 6SM -SHRA BKN050
     FM021100 05007KT 5SM -SHRA BR SCT015 BKN025=



000
FTUS41 KOKX 011700 AAB
TAFTEB
TAF AMD
KTEB 011709Z 0117/0212 16006KT P6SM VCSH FEW040 SCT150 BKN250
     FM011900 17008KT P6SM SCT060 BKN150
     FM020000 18005KT P6SM FEW060 BKN150
     FM020400 VRB05KT P6SM VCSH SCT050 BKN100
     FM020800 04005KT 6SM -SHRA BKN050=



000
FTUS41 KOKX 011700 AAB
TAFEWR
TAF AMD
KEWR 011709Z 0117/0218 17005KT P6SM VCSH SCT035 SCT150 BKN250
     FM011800 16010KT P6SM SCT060 BKN150
     FM020000 18006KT P6SM FEW060 BKN150
     FM020400 VRB05KT P6SM VCSH SCT050 BKN100
     FM020800 05005KT 6SM -SHRA BKN050
     FM021100 05007KT 5SM -SHRA BR BKN030=



000
FTUS41 KOKX 011600 AAB
TAFLGA
TAF AMD
KLGA 011653Z 0117/0212 18009KT P6SM VCSH SCT040 BKN150
     FM011900 18012KT P6SM SCT060 BKN150
     FM020100 18007KT P6SM FEW060 BKN150
     FM020400 VRB05KT P6SM VCSH SCT050 BKN100
     FM020800 05009KT 6SM -SHRA BKN050=



000
FTUS41 KOKX 011400 AAB
TAFGON
TAF AMD
KGON 011440Z 0115/0212 17006KT P6SM SCT015 BKN250
     FM011700 18009KT P6SM FEW060 SCT150
     FM020000 18005KT P6SM FEW060 BKN150
     FM020500 VRB05KT P6SM VCSH SCT050 BKN100
     FM020900 05007KT 6SM -SHRA BKN050=



000
FTUS41 KOKX 011400 AAA
TAFSWF
TAF AMD
KSWF 011440Z 0115/0218 23005KT P6SM FEW050 SCT250
     FM011700 20008KT P6SM SCT040 SCT150 BKN250
     FM020000 VRB05KT P6SM SCT040 BKN150
     FM020600 VRB05KT P6SM SCT050 BKN100
     FM021300 10005KT P6SM BKN050
      AMD NOT SKED=



000
FTUS41 KOKX 011400 AAA
TAFBDR
TAF AMD
KBDR 011440Z 0115/0212 18005KT P6SM FEW050 SCT150 BKN250
     FM011900 18010KT P6SM FEW070 SCT250
     FM020000 18006KT P6SM FEW060 BKN150
     FM020500 VRB05KT P6SM SCT050 BKN100
     FM020900 05007KT 6SM -SHRA BKN050=



000
FTUS41 KOKX 011400 AAA
TAFISP
TAF AMD
KISP 011440Z 0115/0212 18005KT P6SM FEW050 SCT150 BKN250
     FM011700 18010KT P6SM FEW060 SCT250
     FM020000 18007KT P6SM FEW060 BKN150
     FM020400 VRB05KT P6SM VCSH SCT050 BKN100
     FM020800 05007KT 6SM -SHRA BKN050=



000
FTUS41 KOKX 011400 AAA
TAFEWR
TAF AMD
KEWR 011440Z 0115/0218 17005KT P6SM FEW040 SCT150 BKN250
     FM011800 16010KT P6SM SCT060 BKN150
     FM020000 18006KT P6SM FEW060 BKN150
     FM020400 VRB05KT P6SM VCSH SCT050 BKN100
     FM020800 05005KT 6SM -SHRA BKN050
     FM021100 05007KT 5SM -SHRA BR BKN030=



000
FTUS41 KOKX 011400 AAA
TAFTEB
TAF AMD
KTEB 011440Z 0115/0212 17004KT P6SM FEW040 SCT150 BKN250
     FM011900 17008KT P6SM SCT060 BKN150
     FM020000 18005KT P6SM FEW060 BKN150
     FM020400 VRB05KT P6SM VCSH SCT050 BKN100
     FM020800 04005KT 6SM -SHRA BKN050=



000
FTUS41 KOKX 011400 AAA
TAFLGA
TAF AMD
KLGA 011440Z 0115/0212 05005KT P6SM FEW060 SCT150 BKN250
     FM011700 17009KT P6SM FEW060 BKN150
     FM011900 18012KT P6SM SCT060 BKN150
     FM020100 18007KT P6SM FEW060 BKN150
     FM020400 VRB05KT P6SM VCSH SCT050 BKN100
     FM020800 05009KT 6SM -SHRA BKN050=



000
FTUS41 KOKX 011400 AAA
TAFJFK
TAF AMD
KJFK 011440Z 0115/0218 18007KT P6SM FEW040 SCT150 BKN250
     FM011900 18013KT P6SM SCT060 BKN150
     FM020200 18008KT P6SM FEW060 BKN150
     FM020500 VRB05KT P6SM VCSH SCT050 BKN100
     FM020800 05007KT 6SM -SHRA BKN050
     FM021100 05010KT 5SM -SHRA BR BKN030=



000
FTUS41 KOKX 011200 AAA
TAFGON
TAF AMD
KGON 011228Z 0112/0212 17003KT 6SM BR SCT015 BKN250
      TEMPO 0112/0113 5SM BR BKN015
     FM011400 18006KT P6SM SCT250
     FM011700 18009KT P6SM FEW060 SCT150
     FM020000 18005KT P6SM FEW060 BKN150
     FM020500 VRB05KT P6SM VCSH SCT050 BKN100
     FM020900 05007KT 6SM -SHRA BKN050=



000
FTUS41 KOKX 011100
TAFSWF
TAF
KSWF 011136Z 0112/0218 VRB02KT P6SM BKN250
     FM011500 23005KT P6SM SCT250
     FM011700 20008KT P6SM SCT040 SCT150 BKN250
     FM020000 VRB05KT P6SM SCT040 BKN150
     FM020600 VRB05KT P6SM SCT050 BKN100
     FM021300 10005KT P6SM BKN050
      AMD NOT SKED=



000
FTUS41 KOKX 011100
TAFJFK
TAF
KJFK 011136Z 0112/0218 20007KT P6SM BKN150
     FM011500 17010KT P6SM FEW060 BKN250
     FM011900 18013KT P6SM SCT060 BKN150
     FM020200 18008KT P6SM FEW060 BKN150
     FM020500 VRB05KT P6SM VCSH SCT050 BKN100
     FM020800 05007KT 6SM -SHRA BKN050
     FM021100 05010KT 5SM -SHRA BR BKN030=



000
FTUS41 KOKX 011100
TAFEWR
TAF
KEWR 011136Z 0112/0218 21005KT P6SM BKN100
     FM011500 17008KT P6SM FEW060 BKN250
     FM011800 16010KT P6SM SCT060 BKN150
     FM020000 18006KT P6SM FEW060 BKN150
     FM020400 VRB05KT P6SM VCSH SCT050 BKN100
     FM020800 05005KT 6SM -SHRA BKN050
     FM021100 05007KT 5SM -SHRA BR BKN030=



000
FTUS41 KOKX 011100
TAFLGA
TAF
KLGA 011136Z 0112/0212 20006KT P6SM BKN120
     FM011500 17009KT P6SM FEW060 BKN250
     FM011900 18012KT P6SM SCT060 BKN150
     FM020100 18007KT P6SM FEW060 BKN150
     FM020400 VRB05KT P6SM VCSH SCT050 BKN100
     FM020800 05009KT 6SM -SHRA BKN050=



000
FTUS41 KOKX 011100
TAFTEB
TAF
KTEB 011136Z 0112/0212 18003KT P6SM SCT100 BKN250
     FM011500 18006KT P6SM FEW060 BKN250
     FM011900 17008KT P6SM SCT060 BKN150
     FM020000 18005KT P6SM FEW060 BKN150
     FM020400 VRB05KT P6SM VCSH SCT050 BKN100
     FM020800 04005KT 6SM -SHRA BKN050=



000
FTUS41 KOKX 011100
TAFGON
TAF
KGON 011136Z 0112/0212 17003KT 6SM BR SCT015 BKN250
      TEMPO 0112/0113 5SM BR
     FM011400 18006KT P6SM SCT250
     FM011700 18009KT P6SM FEW060 SCT150
     FM020000 18005KT P6SM FEW060 BKN150
     FM020500 VRB05KT P6SM VCSH SCT050 BKN100
     FM020900 05007KT 6SM -SHRA BKN050=



000
FTUS41 KOKX 011100
TAFISP
TAF
KISP 011136Z 0112/0212 21006KT P6SM SCT250
     FM011700 18010KT P6SM FEW060 SCT250
     FM020000 18007KT P6SM FEW060 BKN150
     FM020400 VRB05KT P6SM VCSH SCT050 BKN100
     FM020800 05007KT 6SM -SHRA BKN050=



000
FTUS41 KOKX 011100
TAFBDR
TAF
KBDR 011136Z 0112/0212 21005KT P6SM SCT015 BKN250
     FM011500 16007KT P6SM SCT250
     FM011900 18010KT P6SM FEW070 SCT250
     FM020000 18006KT P6SM FEW060 BKN150
     FM020500 VRB05KT P6SM SCT050 BKN100
     FM020900 05007KT 6SM -SHRA BKN050=



000
FTUS41 KOKX 010800 AAA
TAFISP
TAF AMD
KISP 010820Z 0108/0206 20005KT P6SM SCT015 BKN250
     FM011400 21006KT P6SM SCT250
     FM011700 18010KT P6SM FEW060 SCT250
     FM020000 18007KT P6SM FEW060 BKN150
     FM020500 VRB05KT P6SM SCT050 BKN100=



000
FTUS41 KOKX 010800 AAA
TAFTEB
TAF AMD
KTEB 010820Z 0108/0206 VRB02KT P6SM SCT100 BKN250
     FM011400 18006KT P6SM FEW060 BKN250
     FM011900 17008KT P6SM SCT060 BKN150
     FM020000 18005KT P6SM FEW060 BKN150
     FM020500 VRB05KT P6SM SCT050 BKN100=



000
FTUS41 KOKX 010800 AAA
TAFJFK
TAF AMD
KJFK 010820Z 0108/0212 20007KT P6SM BKN150
     FM011400 17010KT P6SM FEW060 BKN250
     FM011900 18013KT P6SM SCT060 BKN150
     FM020200 18008KT P6SM FEW060 BKN150
     FM020500 VRB05KT P6SM SCT050 BKN100
     FM021000 05009KT 6SM -SHRA BKN050=



000
FTUS41 KOKX 010800 AAA
TAFSWF
TAF AMD
KSWF 010820Z 0108/0212 VRB02KT P6SM BKN250
     FM011500 23005KT P6SM SCT250
     FM011700 20008KT P6SM SCT040 SCT150 BKN250
     FM020000 VRB05KT P6SM SCT040 BKN150
     FM020600 VRB05KT P6SM SCT050 BKN100
      AMD NOT SKED=



000
FTUS41 KOKX 010800 AAA
TAFBDR
TAF AMD
KBDR 010820Z 0108/0206 21005KT P6SM SCT015 BKN250
      TEMPO 0109/0113 BKN015
     FM011500 16007KT P6SM SCT250
     FM011900 18010KT P6SM FEW070 SCT250
     FM020000 18006KT P6SM FEW060 BKN150
     FM020500 VRB05KT P6SM SCT050 BKN100=



000
FTUS41 KOKX 010800 AAA
TAFLGA
TAF AMD
KLGA 010820Z 0108/0206 20006KT P6SM BKN120
     FM011400 17009KT P6SM FEW060 BKN250
     FM011900 18012KT P6SM SCT060 BKN150
     FM020100 18007KT P6SM FEW060 BKN150
     FM020500 VRB05KT P6SM SCT050 BKN100=



000
FTUS41 KOKX 010800 AAA
TAFEWR
TAF AMD
KEWR 010820Z 0108/0212 18005KT P6SM BKN100
     FM011400 17008KT P6SM FEW060 BKN250
     FM011800 16010KT P6SM SCT060 BKN150
     FM020000 18006KT P6SM FEW060 BKN150
     FM020500 VRB05KT P6SM SCT050 BKN100
     FM021000 05005KT 6SM -SHRA BKN050=



000
FTUS41 KOKX 010800 AAA
TAFGON
TAF AMD
KGON 010820Z 0108/0206 17003KT P6SM SCT015 BKN250
      TEMPO 0109/0113 BKN015
     FM011400 18006KT P6SM SCT250
     FM011700 18009KT P6SM FEW060 SCT150
     FM020000 18005KT P6SM FEW060 BKN150
     FM020500 VRB05KT P6SM SCT050 BKN100=



000
FTUS41 KOKX 010500 RRA
TAFGON
TAF
KGON 010544Z 0106/0206 16003KT P6SM SKC
     FM011400 18006KT P6SM SKC
     FM011700 18009KT P6SM FEW060 SCT150
     FM020000 18005KT P6SM FEW060 BKN150
     FM020500 VRB05KT P6SM SCT050 BKN100=



000
FTUS41 KOKX 010500 RRA
TAFTEB
TAF
KTEB 010544Z 0106/0206 VRB02KT P6SM SCT100 BKN250
     FM011400 18006KT P6SM FEW060 BKN250
     FM011900 17008KT P6SM SCT060 BKN150
     FM020000 18005KT P6SM FEW060 BKN150
     FM020500 VRB05KT P6SM SCT050 BKN100=



000
FTUS41 KOKX 010500 RRA
TAFSWF
TAF
KSWF 010544Z 0106/0212 VRB02KT P6SM BKN250
     FM011500 23005KT P6SM SCT250
     FM011700 20008KT P6SM SCT040 SCT150 BKN250
     FM020000 VRB05KT P6SM SCT040 BKN150
     FM020600 VRB05KT P6SM SCT050 BKN100
      AMD NOT SKED=



000
FTUS41 KOKX 010500 RRA
TAFLGA
TAF
KLGA 010544Z 0106/0206 19006KT P6SM BKN120
     FM011400 17009KT P6SM FEW060 BKN250
     FM011900 18012KT P6SM SCT060 BKN150
     FM020100 18007KT P6SM FEW060 BKN150
     FM020500 VRB05KT P6SM SCT050 BKN100=



000
FTUS41 KOKX 010500 RRA
TAFISP
TAF
KISP 010544Z 0106/0206 19005KT P6SM SCT100 BKN250
     FM011400 21006KT P6SM FEW250
     FM011700 18010KT P6SM FEW060 SCT250
     FM020000 18007KT P6SM FEW060 BKN150
     FM020500 VRB05KT P6SM SCT050 BKN100=



000
FTUS41 KOKX 010500 RRA
TAFJFK
TAF
KJFK 010544Z 0106/0212 20007KT P6SM BKN150
     FM011400 17010KT P6SM FEW060 BKN250
     FM011900 18013KT P6SM SCT060 BKN150
     FM020200 18008KT P6SM FEW060 BKN150
     FM020500 VRB05KT P6SM SCT050 BKN100
     FM021000 05009KT 6SM -SHRA BKN050=



000
FTUS41 KOKX 010500 RRA
TAFEWR
TAF
KEWR 010544Z 0106/0212 21005KT P6SM BKN100
     FM011400 17008KT P6SM FEW060 BKN250
     FM011800 16010KT P6SM SCT060 BKN150
     FM020000 18006KT P6SM FEW060 BKN150
     FM020500 VRB05KT P6SM SCT050 BKN100
     FM021000 05005KT 6SM -SHRA BKN050=



000
FTUS41 KOKX 010500 RRA
TAFBDR
TAF
KBDR 010544Z 0106/0206 21003KT P6SM FEW150 BKN250
     FM011500 15007KT P6SM FEW250
     FM011900 18010KT P6SM FEW070 SCT250
     FM020000 18006KT P6SM FEW060 BKN150
     FM020500 VRB05KT P6SM SCT050 BKN100=



000
FTUS41 KOKX 010300 AAA
TAFTEB
TAF AMD
KTEB 010314Z 0103/0124 VRB02KT P6SM SCT100 BKN250
     FM011400 19006KT P6SM FEW060 BKN250
     FM011900 17010KT P6SM SCT060 BKN120=



000
FTUS41 KOKX 010300 AAA
TAFLGA
TAF AMD
KLGA 010314Z 0103/0124 19006KT P6SM BKN120
     FM011400 18009KT P6SM FEW060 BKN250
     FM011900 17012KT P6SM SCT060 BKN150=



000
FTUS41 KOKX 010300 AAA
TAFGON
TAF AMD
KGON 010314Z 0103/0124 VRB02KT P6SM SKC
     FM011300 19006KT P6SM SKC
     FM011700 18010KT P6SM FEW060 SCT150=



000
FTUS41 KOKX 010300 AAA
TAFJFK
TAF AMD
KJFK 010314Z 0103/0206 20007KT P6SM BKN150
     FM011400 18010KT P6SM FEW060 BKN250
     FM011900 17013KT P6SM SCT060 BKN150
     FM020200 20008KT P6SM FEW060 BKN150=



000
FTUS41 KOKX 010300 AAA
TAFEWR
TAF AMD
KEWR 010314Z 0103/0206 21005KT P6SM BKN100
     FM011400 18008KT P6SM FEW060 BKN250
     FM011700 19012KT P6SM SCT060 BKN150
     FM020200 19006KT P6SM FEW060 BKN150=



000
FTUS41 KOKX 010300 AAA
TAFBDR
TAF AMD
KBDR 010314Z 0103/0124 VRB03KT P6SM FEW150 BKN250
     FM011300 20007KT P6SM FEW250
     FM011900 19010KT P6SM FEW070 SCT250=



000
FTUS41 KOKX 010300 AAA
TAFISP
TAF AMD
KISP 010314Z 0103/0124 19006KT P6SM SCT100 BKN250
     FM010500 VRB02KT P6SM BKN100
     FM011300 21006KT P6SM FEW250
     FM011700 18010KT P6SM FEW060 SCT250=



000
FTUS41 KOKX 312300
TAFGON
TAF
KGON 312336Z 0100/0124 19005KT P6SM SKC
     FM010100 VRB02KT P6SM SKC
     FM011300 19006KT P6SM SKC
     FM011700 18010KT P6SM FEW060 SCT150=



000
FTUS41 KOKX 312300
TAFISP
TAF
KISP 312336Z 0100/0124 19010KT P6SM FEW060 SCT250
     FM010100 20006KT P6SM SCT250
     FM010500 VRB02KT P6SM FEW250
     FM011300 21006KT P6SM FEW250
     FM011700 18010KT P6SM FEW060 SCT250=



000
FTUS41 KOKX 312300
TAFLGA
TAF
KLGA 312336Z 0100/0124 18012KT P6SM FEW060 SCT100
     FM010200 21005KT P6SM FEW100 SCT250
     FM011400 18009KT P6SM FEW060 BKN250
     FM011900 17012KT P6SM SCT060 BKN150=



000
FTUS41 KOKX 312300
TAFSWF
TAF
KSWF 312336Z 0100/0206 25005KT P6SM SCT050 SCT100 BKN250
     FM010100 VRB02KT P6SM BKN250
     FM011400 23005KT P6SM SCT250
     FM011700 20009KT P6SM SCT040 SCT150 BKN250
     FM020100 VRB02KT P6SM FEW040 SCT150 BKN250
      AMD NOT SKED=



000
FTUS41 KOKX 312300
TAFEWR
TAF
KEWR 312336Z 0100/0206 21005KT P6SM FEW050 SCT090
     FM010200 22005KT P6SM FEW150 SCT250
     FM011400 18008KT P6SM FEW060 BKN250
     FM011700 19012KT P6SM SCT060 BKN150
     FM020200 19006KT P6SM FEW060 BKN150=



000
FTUS41 KOKX 312300
TAFBDR
TAF
KBDR 312336Z 0100/0124 19009KT P6SM SCT250
     FM010300 VRB03KT P6SM FEW250
     FM011300 20007KT P6SM FEW250
     FM011900 19010KT P6SM FEW070 SCT250=



000
FTUS41 KOKX 312300
TAFJFK
TAF
KJFK 312336Z 0100/0206 18013KT P6SM FEW050 SCT120
     FM010200 21006KT P6SM FEW120 SCT250
     FM011400 18010KT P6SM FEW060 BKN250
     FM011900 17013KT P6SM SCT060 BKN150
     FM020200 20008KT P6SM FEW060 BKN150=



000
FTUS41 KOKX 312300
TAFTEB
TAF
KTEB 312336Z 0100/0124 16006KT P6SM SCT120
     FM010300 VRB02KT P6SM FEW120 BKN250
     FM011400 19006KT P6SM FEW060 BKN250
     FM011900 17010KT P6SM SCT060 BKN120=



000
FTUS41 KOKX 312000 AAA
TAFTEB
TAF AMD
KTEB 312032Z 3121/0118 19011G18KT P6SM SCT070 SCT250
     FM312300 20007KT P6SM BKN250
     FM010200 VRB04KT P6SM BKN250
     FM011500 19006KT P6SM BKN200=



000
FTUS41 KOKX 312000 AAA
TAFISP
TAF AMD
KISP 312032Z 3121/0118 18011KT P6SM FEW050
     FM010000 20007KT P6SM FEW250
     FM010500 VRB04KT P6SM SCT250
     FM011500 17007KT P6SM BKN250=



000
FTUS41 KOKX 312000 AAA
TAFJFK
TAF AMD
KJFK 312032Z 3121/0124 18012G18KT P6SM SCT050 SCT250
     FM010100 19008KT P6SM SCT250
     FM010600 VRB04KT P6SM BKN250
     FM011400 18008KT P6SM BKN200
     FM011800 16010KT P6SM BKN100=



000
FTUS41 KOKX 312000 AAA
TAFBDR
TAF AMD
KBDR 312032Z 3121/0118 19010KT P6SM FEW050
     FM010200 VRB04KT P6SM FEW250
     FM011400 15007KT P6SM BKN250=



000
FTUS41 KOKX 312000 AAA
TAFLGA
TAF AMD
KLGA 312032Z 3121/0118 18014G19KT P6SM FEW050 SCT250
     FM010000 19009KT P6SM BKN250
     FM010600 VRB05KT P6SM BKN250
     FM011400 17008KT P6SM BKN200=



000
FTUS41 KOKX 312000 AAA
TAFGON
TAF AMD
KGON 312032Z 3121/0118 18010KT P6SM SKC
     FM010000 VRB03KT P6SM SCT250
     FM011500 18007KT P6SM BKN250=



000
FTUS41 KOKX 312000 AAA
TAFEWR
TAF AMD
KEWR 312032Z 3121/0124 21011G18KT P6SM SCT060 SCT250
     FM312300 20009KT P6SM SCT250
     FM010600 VRB04KT P6SM BKN250
     FM011400 18006KT P6SM BKN200
     FM011800 16008KT P6SM BKN100=



000
FTUS41 KOKX 311700
TAFEWR
TAF
KEWR 311724Z 3118/0124 20011G18KT P6SM SCT050 SCT250
     FM312300 20009KT P6SM SCT250
     FM010600 VRB04KT P6SM BKN250
     FM011400 18006KT P6SM BKN200
     FM011800 16008KT P6SM BKN100=



000
FTUS41 KOKX 311700
TAFGON
TAF
KGON 311724Z 3118/0118 19009KT P6SM SKC
     FM010000 VRB03KT P6SM SCT250
     FM011500 18007KT P6SM BKN250=



000
FTUS41 KOKX 311700
TAFBDR
TAF
KBDR 311724Z 3118/0118 21009KT P6SM FEW050
     FM010200 VRB04KT P6SM FEW250
     FM011400 15007KT P6SM BKN250=



000
FTUS41 KOKX 311700
TAFSWF
TAF
KSWF 311724Z 3118/0124 25009KT P6SM SCT030 BKN060
     FM312300 23006KT P6SM SCT050 BKN250
     FM010100 VRB02KT P6SM BKN250
     FM011600 22007KT P6SM BKN120
      TEMPO 0118/0122 BKN050
      AMD NOT SKED=



000
FTUS41 KOKX 311700
TAFLGA
TAF
KLGA 311724Z 3118/0118 22013G19KT P6SM SCT060 SCT250
     FM311900 20012G18KT P6SM FEW050 SCT250
     FM010000 19009KT P6SM BKN250
     FM010600 VRB05KT P6SM BKN250
     FM011400 17008KT P6SM BKN200=



000
FTUS41 KOKX 311700
TAFJFK
TAF
KJFK 311724Z 3118/0124 19011G18KT P6SM SCT050 SCT250
     FM010000 19008KT P6SM SCT250
     FM010600 VRB04KT P6SM BKN250
     FM011400 18008KT P6SM BKN200
     FM011800 16010KT P6SM BKN100=



000
FTUS41 KOKX 311700
TAFTEB
TAF
KTEB 311724Z 3118/0118 20011G18KT P6SM SCT050 SCT250
      TEMPO 3118/3122 BKN050
     FM312300 20007KT P6SM BKN250
     FM010200 VRB04KT P6SM BKN250
     FM011500 19006KT P6SM BKN200=



000
FTUS41 KOKX 311700
TAFISP
TAF
KISP 311724Z 3118/0118 19011KT P6SM FEW050
     FM010000 20007KT P6SM FEW250
     FM010500 VRB04KT P6SM SCT250
     FM011500 17007KT P6SM BKN250=



000
FTUS41 KOKX 311400 AAA
TAFBDR
TAF AMD
KBDR 311432Z 3115/0112 21007KT P6SM FEW250
     FM311600 19010KT P6SM FEW050 SCT250
     FM010000 20005KT P6SM BKN250=



000
FTUS41 KOKX 311400 AAA
TAFEWR
TAF AMD
KEWR 311432Z 3115/0118 22010KT P6SM SCT050 BKN250
     FM311900 20012G19KT P6SM SCT050 BKN250
     FM010000 20007KT P6SM BKN250
     FM011500 16009KT P6SM BKN150=



000
FTUS41 KOKX 311400 AAA
TAFTEB
TAF AMD
KTEB 311432Z 3115/0112 21008KT P6SM SCT050 BKN250
     FM311900 21010G18KT P6SM SCT050 BKN250
     FM010000 20007KT P6SM BKN250=



000
FTUS41 KOKX 311400 AAA
TAFLGA
TAF AMD
KLGA 311432Z 3115/0112 23010KT P6SM BKN250
     FM311800 20011G19KT P6SM SCT050 BKN250
     FM010100 20009KT P6SM BKN250=



000
FTUS41 KOKX 311400 AAA
TAFSWF
TAF AMD
KSWF 311432Z 3115/0118 23007KT P6SM BKN050
      TEMPO 3116/3119 6SM -SHRA BKN035
     FM312100 23008KT P6SM SCT050 BKN250
     FM010200 VRB02KT P6SM BKN250
     FM011500 21006KT P6SM BKN150
      AMD NOT SKED=



000
FTUS41 KOKX 311400 AAB
TAFJFK
TAF AMD
KJFK 311432Z 3115/0118 22008KT P6SM BKN250
     FM311600 19011KT P6SM SCT050 SCT250
     FM311900 18014G20KT P6SM SCT050 BKN250
     FM010100 20009KT P6SM BKN250
     FM011500 16010KT P6SM BKN150=



000
FTUS41 KOKX 311400 AAA
TAFGON
TAF AMD
KGON 311432Z 3115/0112 20007KT P6SM SCT250
     FM311800 19010KT P6SM FEW050 SCT250
     FM010000 20005KT P6SM BKN250=



000
FTUS41 KOKX 311400 AAA
TAFISP
TAF AMD
KISP 311432Z 3115/0112 21009KT P6SM SCT250
     FM311700 19011KT P6SM FEW050 SCT250
     FM010000 20006KT P6SM BKN250=



000
FTUS41 KOKX 311200 AAA
TAFJFK
TAF AMD
KJFK 311233Z 3113/0118 22006KT P6SM SCT200
     FM311600 19012KT P6SM SCT050 SCT250
     FM311900 18014G20KT P6SM SCT050 BKN250
     FM010100 20009KT P6SM BKN250
     FM011500 16010KT P6SM BKN150=



000
FTUS41 KOKX 311100
TAFBDR
TAF
KBDR 311120Z 3112/0112 VRB02KT P6SM SKC
     FM311300 21007KT P6SM FEW250
     FM311600 19010KT P6SM FEW050 SCT250
     FM010000 20005KT P6SM BKN250=



000
FTUS41 KOKX 311100
TAFEWR
TAF
KEWR 311120Z 3112/0118 22005KT P6SM SCT250
     FM311300 22010KT P6SM SCT050 SCT250
     FM311900 20012G19KT P6SM SCT050 BKN250
     FM010000 20007KT P6SM BKN250
     FM011500 16009KT P6SM BKN150=



000
FTUS41 KOKX 311100
TAFLGA
TAF
KLGA 311120Z 3112/0112 22006KT P6SM SCT250
     FM311800 20011G19KT P6SM SCT050 BKN250
     FM010100 20009KT P6SM BKN250=



000
FTUS41 KOKX 311100
TAFISP
TAF
KISP 311120Z 3112/0112 VRB02KT P6SM SKC
     FM311300 21008KT P6SM FEW250
     FM311700 19011KT P6SM FEW050 SCT250
     FM010000 20006KT P6SM BKN250=



000
FTUS41 KOKX 311100
TAFTEB
TAF
KTEB 311120Z 3112/0112 VRB03KT P6SM SCT250
     FM311300 22007KT P6SM SCT050 SCT250
     FM311900 21010G18KT P6SM SCT050 BKN250
     FM010000 20007KT P6SM BKN250=



000
FTUS41 KOKX 311100
TAFGON
TAF
KGON 311120Z 3112/0112 VRB03KT P6SM SKC
     FM311300 20008KT P6SM SKC
     FM311800 19010KT P6SM FEW050 SCT250
     FM010000 20005KT P6SM BKN250=



000
FTUS41 KOKX 311100
TAFSWF
TAF
KSWF 311120Z 3112/0118 VRB02KT P6SM SCT250
     FM311300 25008KT P6SM BKN050
      TEMPO 3115/3119 6SM -SHRA BKN035
     FM312100 23008KT P6SM SCT050 BKN250
     FM010200 VRB02KT P6SM BKN250
     FM011500 21006KT P6SM BKN150
      AMD NOT SKED=



000
FTUS41 KOKX 311100
TAFJFK
TAF
KJFK 311120Z 3112/0118 24007KT P6SM SCT250
     FM311600 19012KT P6SM SCT050 SCT250
     FM311900 18014G20KT P6SM SCT050 BKN250
     FM010100 20009KT P6SM BKN250
     FM011500 16010KT P6SM BKN150=



000
FTUS41 KOKX 310800 AAA
TAFISP
TAF AMD
KISP 310837Z 3109/0106 VRB02KT P6SM SKC
     FM311300 21008KT P6SM FEW250
     FM311700 19011KT P6SM FEW050 SCT250
     FM010000 20006KT P6SM BKN250=



000
FTUS41 KOKX 310800 AAA
TAFEWR
TAF AMD
KEWR 310837Z 3109/0112 22005KT P6SM SCT250
     FM311300 22010KT P6SM SCT050 SCT250
     FM311900 20012G19KT P6SM SCT050 BKN250
     FM010000 20007KT P6SM BKN250=



000
FTUS41 KOKX 310800 AAA
TAFBDR
TAF AMD
KBDR 310837Z 3109/0106 VRB02KT P6SM SKC
     FM311300 21007KT P6SM FEW250
     FM311600 19010KT P6SM FEW050 SCT250
     FM010000 20005KT P6SM BKN250=



000
FTUS41 KOKX 310800 AAA
TAFJFK
TAF AMD
KJFK 310837Z 3109/0112 24007KT P6SM SCT250
     FM311600 19012KT P6SM SCT050 SCT250
     FM311900 18014G20KT P6SM SCT050 BKN250
     FM010100 20009KT P6SM BKN250=



000
FTUS41 KOKX 310800 AAA
TAFTEB
TAF AMD
KTEB 310837Z 3109/0106 VRB03KT P6SM SCT250
     FM311300 22007KT P6SM SCT050 SCT250
     FM311900 21010G18KT P6SM SCT050 BKN250
     FM010000 20007KT P6SM BKN250=



000
FTUS41 KOKX 310800 AAA
TAFSWF
TAF AMD
KSWF 310837Z 3109/0112 VRB02KT P6SM SCT250
     FM311300 25008KT P6SM BKN050
      TEMPO 3115/3119 6SM -SHRA BKN035
     FM312100 23008KT P6SM SCT050 BKN250
     FM010200 VRB02KT P6SM BKN250
      AMD NOT SKED=



000
FTUS41 KOKX 310800 AAA
TAFGON
TAF AMD
KGON 310837Z 3109/0106 VRB03KT P6SM SKC
     FM311300 20008KT P6SM SKC
     FM311800 19010KT P6SM FEW050 SCT250
     FM010000 20005KT P6SM BKN250=



000
FTUS41 KOKX 310800 AAA
TAFLGA
TAF AMD
KLGA 310837Z 3109/0106 22006KT P6SM SCT250
     FM311800 20011G19KT P6SM SCT050 BKN250
     FM010100 20009KT P6SM BKN250=



000
FTUS41 KOKX 310500
TAFTEB
TAF
KTEB 310520Z 3106/0106 VRB03KT P6SM SCT250
     FM311300 22007KT P6SM SCT050 SCT250
     FM311900 21010G18KT P6SM SCT050 BKN250
     FM010000 20007KT P6SM BKN250=



000
FTUS41 KOKX 310500
TAFLGA
TAF
KLGA 310520Z 3106/0106 22006KT P6SM SCT250
     FM311800 20011G19KT P6SM SCT050 BKN250
     FM010100 20009KT P6SM BKN250=



000
FTUS41 KOKX 310500
TAFEWR
TAF
KEWR 310520Z 3106/0112 22005KT P6SM SCT250
     FM311300 22010KT P6SM SCT050 SCT250
     FM311900 20012G19KT P6SM SCT050 BKN250
     FM010000 20007KT P6SM BKN250=



000
FTUS41 KOKX 310500
TAFSWF
TAF
KSWF 310520Z 3106/0112 VRB02KT P6SM SCT250
     FM311300 25008KT P6SM BKN050
      TEMPO 3115/3118 6SM -SHRA BKN035
     FM312100 23008KT P6SM SCT050 BKN250
     FM010200 VRB02KT P6SM BKN250
      AMD NOT SKED=



000
FTUS41 KOKX 310500
TAFISP
TAF
KISP 310520Z 3106/0106 VRB02KT P6SM SKC
     FM311300 21008KT P6SM FEW250
     FM311700 19011KT P6SM FEW050 SCT250
     FM010000 20006KT P6SM BKN250=



000
FTUS41 KOKX 310500
TAFJFK
TAF
KJFK 310520Z 3106/0112 22007KT P6SM SCT250
     FM311600 19012KT P6SM SCT050 SCT250
     FM311900 18014G20KT P6SM SCT050 BKN250
     FM010100 20009KT P6SM BKN250=



000
FTUS41 KOKX 310500
TAFBDR
TAF
KBDR 310520Z 3106/0106 VRB02KT P6SM SKC
     FM311300 21007KT P6SM FEW250
     FM311600 19010KT P6SM FEW050 SCT250
     FM010000 20005KT P6SM BKN250=



000
FTUS41 KOKX 310500
TAFGON
TAF
KGON 310520Z 3106/0106 VRB03KT P6SM SKC
     FM311300 20008KT P6SM SKC
     FM311800 19010KT P6SM FEW050 SCT250
     FM010000 20005KT P6SM BKN250=



000
FTUS41 KOKX 310200 AAA
TAFBDR
TAF AMD
KBDR 310230Z 3103/3124 22007KT P6SM SKC
     FM310400 VRB02KT P6SM SKC
     FM311300 21007KT P6SM FEW250
     FM311600 19010KT P6SM FEW050 SCT250=



000
FTUS41 KOKX 310200 AAA
TAFLGA
TAF AMD
KLGA 310230Z 3103/3124 22006KT P6SM SCT250
     FM311800 20011G19KT P6SM SCT050 BKN250=



000
FTUS41 KOKX 310200 AAA
TAFISP
TAF AMD
KISP 310230Z 3103/3124 21007KT P6SM SKC
     FM310400 VRB02KT P6SM SKC
     FM311300 21008KT P6SM FEW250
     FM311700 19011KT P6SM FEW050 SCT250=



000
FTUS41 KOKX 310200 AAA
TAFTEB
TAF AMD
KTEB 310230Z 3103/3124 VRB03KT P6SM SCT250
     FM311300 22007KT P6SM SCT050 SCT250
     FM311900 21010G18KT P6SM SCT050 BKN250=



000
FTUS41 KOKX 310200 AAA
TAFGON
TAF AMD
KGON 310230Z 3103/3124 VRB03KT P6SM SKC
     FM311300 20008KT P6SM SKC
     FM311800 18011KT P6SM FEW050 SCT250=



000
FTUS41 KOKX 310200 AAA
TAFEWR
TAF AMD
KEWR 310230Z 3103/0106 22005KT P6SM SCT250
     FM311300 22010KT P6SM SCT050 SCT250
     FM311900 21012G19KT P6SM SCT050 BKN250
     FM010000 22007KT P6SM BKN250=



000
FTUS41 KOKX 310200 AAA
TAFJFK
TAF AMD
KJFK 310230Z 3103/0106 22007KT P6SM SCT250
     FM311600 19012KT P6SM SCT050 SCT250
     FM311900 19014G20KT P6SM SCT050 BKN250
     FM010100 20009KT P6SM BKN250=



000
FTUS41 KOKX 302300
TAFISP
TAF
KISP 302320Z 3100/3124 21008KT P6SM FEW060
     FM310400 VRB04KT P6SM SKC
     FM311300 21008KT P6SM FEW250
     FM311700 19011KT P6SM FEW050 SCT250=



000
FTUS41 KOKX 302300
TAFSWF
TAF
KSWF 302320Z 3100/0106 24005KT P6SM FEW050
     FM310100 VRB02KT P6SM SCT250
     FM311300 25008KT P6SM BKN050
      TEMPO 3115/3118 6SM -SHRA BKN035
     FM312100 23008KT P6SM SCT050 BKN250
     FM010200 VRB02KT P6SM BKN250
      AMD NOT SKED=



000
FTUS41 KOKX 302300
TAFJFK
TAF
KJFK 302320Z 3100/0106 19012KT P6SM FEW070
     FM310200 22007KT P6SM SCT250
     FM311600 19012KT P6SM SCT050 SCT250
     FM311900 19014G20KT P6SM SCT050 BKN250
     FM010100 20009KT P6SM BKN250=



000
FTUS41 KOKX 302300
TAFBDR
TAF
KBDR 302320Z 3100/3124 21005KT P6SM SKC
     FM310200 VRB02KT P6SM SKC
     FM311300 21007KT P6SM FEW250
     FM311600 19010KT P6SM FEW050 SCT250=



000
FTUS41 KOKX 302300
TAFLGA
TAF
KLGA 302320Z 3100/3124 20011KT P6SM FEW070
     FM310200 22007KT P6SM SCT250
     FM311800 20011G19KT P6SM SCT050 BKN250=



000
FTUS41 KOKX 302300
TAFGON
TAF
KGON 302320Z 3100/3124 21006KT P6SM SKC
     FM310300 VRB03KT P6SM SKC
     FM311300 20008KT P6SM SKC
     FM311800 18011KT P6SM FEW050 SCT250=



000
FTUS41 KOKX 302300
TAFEWR
TAF
KEWR 302320Z 3100/0106 24008KT P6SM FEW070
     FM310300 23005KT P6SM SCT250
     FM311300 22010KT P6SM SCT050 SCT250
     FM311900 21012G19KT P6SM SCT050 BKN250
     FM010000 22007KT P6SM BKN250=



000
FTUS41 KOKX 302300
TAFTEB
TAF
KTEB 302320Z 3100/3124 25006KT P6SM FEW070
     FM310200 VRB03KT P6SM SCT250
     FM311300 22007KT P6SM SCT050 SCT250
     FM311900 21010G18KT P6SM SCT050 BKN250=



000
FTUS41 KOKX 302000 AAB
TAFISP
TAF AMD
KISP 302031Z 3021/3118 20010KT P6SM SCT070
     FM310100 VRB04KT P6SM SKC
     FM311300 20008KT P6SM FEW250=



000
FTUS41 KOKX 302000 AAB
TAFJFK
TAF AMD
KJFK 302031Z 3021/3124 20012KT P6SM SCT070
     FM310200 22006KT P6SM SCT250
     FM311600 19012KT P6SM BKN050
     FM312300 20009KT P6SM BKN250=



000
FTUS41 KOKX 302000 AAA
TAFTEB
TAF AMD
KTEB 302031Z 3021/3118 26006KT P6SM SCT070
      TEMPO 3021/3022 BKN070
     FM302200 23007KT P6SM SCT070
     FM310100 VRB03KT P6SM SCT250
     FM311400 22008KT P6SM BKN050=



000
FTUS41 KOKX 302000 AAA
TAFEWR
TAF AMD
KEWR 302031Z 3021/3124 27008KT P6SM SCT070
      TEMPO 3021/3022 BKN070
     FM302200 22007KT P6SM SCT070
     FM310600 VRB04KT P6SM SCT250
     FM311300 22008KT P6SM SCT250
     FM311600 21011KT P6SM BKN050
     FM312300 22009KT P6SM BKN250=



000
FTUS41 KOKX 302000 AAA
TAFGON
TAF AMD
KGON 302031Z 3021/3118 21008KT P6SM SCT050
     FM310000 VRB03KT P6SM SKC
     FM311400 20008KT P6SM SKC=



000
FTUS41 KOKX 302000 AAA
TAFLGA
TAF AMD
KLGA 302031Z 3021/3118 27007KT P6SM SCT070
     FM302145 20009KT P6SM SCT070
     FM310300 22006KT P6SM SCT250
     FM311600 20010KT P6SM BKN050=



000
FTUS41 KOKX 302000 AAA
TAFBDR
TAF AMD
KBDR 302031Z 3021/3118 20010KT P6SM FEW070
     FM310200 VRB04KT P6SM SKC
     FM311300 20008KT P6SM FEW250=



000
FTUS41 KOKX 301900 AAA
TAFJFK
TAF AMD
KJFK 301941Z 3020/3124 20011KT P6SM SCT070
     FM310200 22006KT P6SM SCT250
     FM311600 19012KT P6SM BKN050
     FM312300 20009KT P6SM BKN250=



000
FTUS41 KOKX 301800 AAA
TAFISP
TAF AMD
KISP 301828Z 3018/3118 19009KT P6SM SCT060
     FM310100 VRB04KT P6SM SKC
     FM311300 20008KT P6SM FEW250=



000
FTUS41 KOKX 301700
TAFISP
TAF
KISP 301721Z 3018/3118 VRB03KT P6SM SCT090
     FM301900 21008KT P6SM SCT060
     FM310100 VRB04KT P6SM SKC
     FM311300 20008KT P6SM FEW250=



000
FTUS41 KOKX 301700
TAFLGA
TAF
KLGA 301721Z 3018/3118 VRB05KT P6SM SCT060
     FM302100 19010KT P6SM SCT060
     FM310300 22006KT P6SM SCT250
     FM311600 20010KT P6SM BKN050=



000
FTUS41 KOKX 301700
TAFTEB
TAF
KTEB 301721Z 3018/3118 VRB05KT P6SM SKC
     FM302200 23007KT P6SM SCT060
     FM310100 VRB03KT P6SM SCT250
     FM311400 22008KT P6SM BKN050=



000
FTUS41 KOKX 301700
TAFSWF
TAF
KSWF 301721Z 3018/3124 VRB04KT P6SM SCT040
      TEMPO 3018/3022 BKN040
     FM311400 25008KT P6SM BKN050
     FM312200 VRB04KT P6SM BKN250
      AMD NOT SKED=



000
FTUS41 KOKX 301700
TAFJFK
TAF
KJFK 301721Z 3018/3124 19011KT P6SM SCT050
     FM310200 22006KT P6SM SCT250
     FM311600 19012KT P6SM BKN050
     FM312300 20009KT P6SM BKN250=



000
FTUS41 KOKX 301700
TAFGON
TAF
KGON 301721Z 3018/3118 21008KT P6SM SCT050
     FM310000 VRB03KT P6SM SKC
     FM311400 20008KT P6SM SKC=



000
FTUS41 KOKX 301700
TAFEWR
TAF
KEWR 301721Z 3018/3124 VRB05KT P6SM FEW050
     FM302100 22007KT P6SM SCT060
     FM310600 VRB04KT P6SM SCT250
     FM311300 22008KT P6SM SCT250
     FM311600 21011KT P6SM BKN050
     FM312300 22009KT P6SM BKN250=



000
FTUS41 KOKX 301700
TAFBDR
TAF
KBDR 301721Z 3018/3118 19008KT P6SM SCT060
     FM310200 VRB04KT P6SM SKC
     FM311300 20008KT P6SM FEW250=



000
FTUS41 KOKX 301500 AAD
TAFJFK
TAF AMD
KJFK 301557Z 3016/3118 19010KT P6SM FEW050
     FM301800 18013KT P6SM SCT060
     FM310200 23006KT P6SM SCT060 SCT120
     FM311700 19013KT P6SM BKN050=



000
FTUS41 KOKX 301500 AAB
TAFBDR
TAF AMD
KBDR 301515Z 3015/3112 19008KT P6SM SCT060
     FM310300 VRB04KT P6SM SCT060 SCT120=



000
FTUS41 KOKX 301500 AAC
TAFJFK
TAF AMD
KJFK 301514Z 3015/3118 22007KT P6SM FEW050
     FM301800 19013KT P6SM SCT060
     FM310200 23006KT P6SM SCT060 SCT120
     FM311700 19013KT P6SM BKN050=



000
FTUS41 KOKX 301400 AAA
TAFISP
TAF AMD
KISP 301424Z 3014/3112 VRB03KT P6SM SCT090
     FM301900 21009KT P6SM SCT060
     FM310300 VRB04KT P6SM SCT070 SCT120=



000
FTUS41 KOKX 301400 AAA
TAFGON
TAF AMD
KGON 301424Z 3014/3112 18007KT P6SM SKC
     FM301600 21008KT P6SM SCT060
     FM310300 VRB03KT P6SM SCT060=



000
FTUS41 KOKX 301400 AAB
TAFEWR
TAF AMD
KEWR 301424Z 3014/3118 VRB04KT P6SM FEW090
     FM301900 22008KT P6SM SCT060
     FM310100 24005KT P6SM SCT060 SCT120
     FM311700 22012KT P6SM BKN050=



000
FTUS41 KOKX 301400 AAA
TAFLGA
TAF AMD
KLGA 301424Z 3014/3112 06008KT P6SM FEW090
     FM301900 VRB05KT P6SM SCT060
     FM302100 19011KT P6SM SCT060
     FM310300 22006KT P6SM SCT060 SCT120=



000
FTUS41 KOKX 301400 AAA
TAFBDR
TAF AMD
KBDR 301424Z 3014/3112 VRB04KT P6SM SKC
     FM301700 20009KT P6SM SCT060
     FM310300 VRB04KT P6SM SCT060 SCT120=



000
FTUS41 KOKX 301400 AAA
TAFTEB
TAF AMD
KTEB 301424Z 3014/3112 VRB04KT P6SM SKC
     FM302000 23007KT P6SM SCT060
     FM310200 VRB04KT P6SM SCT060 SCT120=



000
FTUS41 KOKX 301400 AAB
TAFJFK
TAF AMD
KJFK 301424Z 3014/3118 VRB04KT P6SM FEW090
     FM301600 22007KT P6SM SCT060
     FM301800 19013KT P6SM SCT060
     FM310200 23006KT P6SM SCT060 SCT120
     FM311700 19013KT P6SM BKN050=



000
FTUS41 KOKX 301300 AAA
TAFEWR
TAF AMD
KEWR 301339Z 3014/3118 VRB04KT P6SM SCT090
     FM301700 22008KT P6SM SCT060
     FM310100 24005KT P6SM SCT060 SCT120
     FM311700 22012KT P6SM BKN050=



000
FTUS41 KOKX 301300 AAA
TAFJFK
TAF AMD
KJFK 301337Z 3014/3118 VRB04KT P6SM FEW090
     FM301600 22007KT P6SM SCT060
     FM301800 19013KT P6SM SCT060
     FM310200 23006KT P6SM SCT060 SCT120
     FM311700 19013KT P6SM BKN050=



000
FTUS41 KOKX 301100
TAFGON
TAF
KGON 301130Z 3012/3112 VRB03KT P6SM SCT090
      TEMPO 3012/3014 BKN080
     FM301700 22008KT P6SM SCT060
     FM310300 VRB03KT P6SM SCT060=



000
FTUS41 KOKX 301100
TAFSWF
TAF
KSWF 301130Z 3012/3118 28005KT P6SM SCT090
     FM301700 26007KT P6SM SCT060
     FM310200 VRB03KT P6SM SCT060 SCT120
     FM311700 23012KT P6SM BKN050
      AMD NOT SKED=



000
FTUS41 KOKX 301100
TAFISP
TAF
KISP 301130Z 3012/3112 VRB03KT P6SM SCT090
     FM301800 21009KT P6SM SCT060
     FM310300 VRB04KT P6SM SCT070 SCT120=



000
FTUS41 KOKX 301100
TAFLGA
TAF
KLGA 301130Z 3012/3112 34005KT P6SM SCT090
     FM301400 06008KT P6SM SCT060
     FM302100 20011KT P6SM SCT060
     FM310300 22006KT P6SM SCT060 SCT120=



000
FTUS41 KOKX 301100
TAFEWR
TAF
KEWR 301130Z 3012/3118 33005KT P6SM SCT090
     FM301700 22008KT P6SM SCT060
     FM310100 24005KT P6SM SCT060 SCT120
     FM311700 22012KT P6SM BKN050=



000
FTUS41 KOKX 301100
TAFJFK
TAF
KJFK 301130Z 3012/3118 33005KT P6SM SCT090
     FM301600 22007KT P6SM SCT060
     FM301800 19013KT P6SM SCT060
     FM310200 23006KT P6SM SCT060 SCT120
     FM311700 19013KT P6SM BKN050=



000
FTUS41 KOKX 301100
TAFTEB
TAF
KTEB 301130Z 3012/3112 VRB03KT P6SM SCT090
     FM301600 23007KT P6SM SCT060
     FM310200 VRB04KT P6SM SCT060 SCT120=



000
FTUS41 KOKX 301100
TAFBDR
TAF
KBDR 301130Z 3012/3112 VRB03KT P6SM SCT090
     FM301700 20009KT P6SM SCT060
     FM310300 VRB04KT P6SM SCT060 SCT120=



000
FTUS41 KOKX 301000 AAB
TAFLGA
TAF AMD
KLGA 301006Z 3010/3106 33008KT P6SM SCT070 SCT200
     FM301600 06007KT P6SM SCT060
     FM302100 18011KT P6SM SCT060
     FM310300 22006KT P6SM SCT060 SCT120=



000
FTUS41 KOKX 301000 AAB
TAFJFK
TAF AMD
KJFK 301006Z 3010/3112 33005KT P6SM SCT070 SCT200
     FM301600 22007KT P6SM SCT060
     FM301800 18013KT P6SM SCT060
     FM310200 23006KT P6SM SCT060 SCT120=



000
FTUS41 KOKX 301000 AAB
TAFBDR
TAF AMD
KBDR 301006Z 3010/3106 VRB03KT P6SM SCT070
     FM301700 20009KT P6SM SCT060
     FM310300 VRB04KT P6SM SCT060 SCT120=



000
FTUS41 KOKX 301000 AAB
TAFEWR
TAF AMD
KEWR 301006Z 3010/3112 33006KT P6SM SCT070 SCT200
     FM301600 23008KT P6SM SCT060
     FM310100 24005KT P6SM SCT060 SCT120=



000
FTUS41 KOKX 301000 AAB
TAFTEB
TAF AMD
KTEB 301006Z 3010/3106 VRB03KT P6SM SCT070 SCT200
     FM301600 23007KT P6SM SCT060
     FM310200 VRB03KT P6SM SCT060 SCT120=



000
FTUS41 KOKX 300800 AAA
TAFSWF
TAF AMD
KSWF 300830Z 3009/3112 VRB03KT P6SM SCT070
      TEMPO 3009/3011 BKN080
     FM301700 26007KT P6SM SCT060
     FM310200 VRB03KT P6SM SCT060 BKN120
      AMD NOT SKED=



000
FTUS41 KOKX 300800 AAA
TAFBDR
TAF AMD
KBDR 300830Z 3009/3106 VRB03KT P6SM SCT070
      TEMPO 3009/3011 BKN080
     FM301700 20009KT P6SM SCT060
     FM310300 VRB04KT P6SM SCT060 SCT120=



000
FTUS41 KOKX 300800 AAA
TAFJFK
TAF AMD
KJFK 300830Z 3009/3112 33005KT P6SM SCT070 SCT200
      TEMPO 3009/3012 BKN080
     FM301600 22007KT P6SM SCT060
     FM301800 18013KT P6SM SCT060
     FM310200 23006KT P6SM SCT060 SCT120=



000
FTUS41 KOKX 300800 AAA
TAFEWR
TAF AMD
KEWR 300830Z 3009/3112 33005KT P6SM SCT070 SCT200
      TEMPO 3009/3011 BKN080
     FM301600 23008KT P6SM SCT060
     FM310100 24005KT P6SM SCT060 SCT120=



000
FTUS41 KOKX 300800 AAA
TAFISP
TAF AMD
KISP 300830Z 3009/3106 VRB03KT P6SM SCT070
      TEMPO 3009/3011 BKN080
     FM301800 21009KT P6SM SCT060
     FM310300 VRB04KT P6SM SCT070 SCT120=



000
FTUS41 KOKX 300800 AAA
TAFLGA
TAF AMD
KLGA 300830Z 3009/3106 33005KT P6SM SCT070 SCT200
      TEMPO 3009/3012 BKN080
     FM301600 06007KT P6SM SCT060
     FM302100 18011KT P6SM SCT060
     FM310300 22006KT P6SM SCT060 SCT120=



000
FTUS41 KOKX 300800 AAA
TAFTEB
TAF AMD
KTEB 300830Z 3009/3106 VRB03KT P6SM SCT070 SCT200
      TEMPO 3009/3011 BKN080
     FM301600 23007KT P6SM SCT060
     FM310200 VRB03KT P6SM SCT060 SCT120=



000
FTUS41 KOKX 300800 AAA
TAFGON
TAF AMD
KGON 300830Z 3009/3106 VRB03KT P6SM SCT070
      TEMPO 3009/3012 BKN080
     FM301700 22008KT P6SM SCT060
     FM310300 VRB03KT P6SM SCT060=



000
FTUS41 KOKX 300500
TAFEWR
TAF
KEWR 300530Z 3006/3112 33005KT P6SM SCT070 SCT200
      TEMPO 3006/3010 BKN080
     FM301600 23008KT P6SM SCT060
     FM310100 24005KT P6SM SCT060 SCT120=



000
FTUS41 KOKX 300500
TAFJFK
TAF
KJFK 300530Z 3006/3112 33005KT P6SM SCT070 SCT200
      TEMPO 3006/3010 BKN080
     FM301600 22007KT P6SM SCT060
     FM301800 18013KT P6SM SCT060
     FM310200 23006KT P6SM SCT060 SCT120=



000
FTUS41 KOKX 300500
TAFSWF
TAF
KSWF 300530Z 3006/3112 VRB03KT P6SM SCT070
      TEMPO 3006/3010 BKN080
     FM301700 26007KT P6SM SCT060
     FM310200 VRB03KT P6SM SCT060 BKN120
      AMD NOT SKED=



000
FTUS41 KOKX 300500
TAFTEB
TAF
KTEB 300530Z 3006/3106 VRB03KT P6SM SCT070 SCT200
      TEMPO 3006/3010 BKN080
     FM301600 23007KT P6SM SCT060
     FM310200 VRB03KT P6SM SCT060 SCT120=



000
FTUS41 KOKX 300500
TAFBDR
TAF
KBDR 300530Z 3006/3106 VRB03KT P6SM SCT070
      TEMPO 3006/3010 BKN080
     FM301700 20009KT P6SM SCT060
     FM310300 VRB04KT P6SM SCT060 SCT120=



000
FTUS41 KOKX 300500
TAFISP
TAF
KISP 300530Z 3006/3106 VRB03KT P6SM SCT070
      TEMPO 3006/3010 BKN080
     FM301800 21009KT P6SM SCT060
     FM310300 VRB04KT P6SM SCT070 SCT120=



000
FTUS41 KOKX 300500
TAFLGA
TAF
KLGA 300530Z 3006/3106 33005KT P6SM SCT070 SCT200
      TEMPO 3006/3010 BKN080
     FM301600 06007KT P6SM SCT060
     FM302100 18011KT P6SM SCT060
     FM310300 22006KT P6SM SCT060 SCT120=



000
FTUS41 KOKX 300500
TAFGON
TAF
KGON 300530Z 3006/3106 VRB03KT P6SM SCT070
      TEMPO 3006/3010 BKN080
     FM301700 22008KT P6SM SCT060
     FM310300 VRB03KT P6SM SCT060=



000
FTUS41 KOKX 300200 AAA
TAFGON
TAF AMD
KGON 300231Z 3003/3024 VRB03KT P6SM SCT070
     FM301700 22008KT P6SM SCT060=



000
FTUS41 KOKX 300200 AAA
TAFLGA
TAF AMD
KLGA 300231Z 3003/3024 32007KT P6SM SCT080
     FM300500 VRB04KT P6SM SCT070
     FM301600 06007KT P6SM SCT060
     FM302100 18011KT P6SM SCT060=



000
FTUS41 KOKX 300200 AAA
TAFSWF
TAF AMD
KSWF 300231Z 3003/3106 VRB03KT P6SM SCT070
     FM301700 26007KT P6SM SCT060
      AMD NOT SKED=



000
FTUS41 KOKX 300200 AAA
TAFISP
TAF AMD
KISP 300231Z 3003/3024 VRB03KT P6SM SCT070
     FM301800 21009KT P6SM SCT060=



000
FTUS41 KOKX 300200 AAA
TAFBDR
TAF AMD
KBDR 300231Z 3003/3024 VRB03KT P6SM SCT070
     FM301700 20009KT P6SM SCT060=



000
FTUS41 KOKX 300200 AAA
TAFEWR
TAF AMD
KEWR 300231Z 3003/3106 31007KT P6SM SCT080
     FM300500 VRB04KT P6SM SCT070
     FM301600 23008KT P6SM SCT060
     FM310100 24005KT P6SM SCT060=



000
FTUS41 KOKX 300200 AAA
TAFTEB
TAF AMD
KTEB 300231Z 3003/3024 VRB03KT P6SM SCT070
     FM301600 23007KT P6SM SCT060=



000
FTUS41 KOKX 300200 AAA
TAFJFK
TAF AMD
KJFK 300231Z 3003/3106 30007KT P6SM SCT080
     FM300500 VRB04KT P6SM SCT070
     FM301600 22007KT P6SM SCT060
     FM301800 18013KT P6SM SCT060
     FM310200 23006KT P6SM SCT060=



000
FTUS41 KOKX 300000 RRA
TAFEWR
TAF
KEWR 300008Z 3000/3106 31007KT P6SM SCT070
     FM300400 VRB04KT P6SM SCT060
     FM301600 23008KT P6SM SCT060
     FM310100 24005KT P6SM SCT060=



000
FTUS41 KOKX 300000 RRA
TAFSWF
TAF
KSWF 300008Z 3000/3106 30007KT P6SM BKN070
     FM300300 VRB03KT P6SM SCT060
     FM301700 26007KT P6SM SCT060
      AMD NOT SKED=



000
FTUS41 KOKX 300000 RRA
TAFLGA
TAF
KLGA 300008Z 3000/3024 30007KT P6SM SCT080
     FM300500 VRB04KT P6SM SCT070
     FM301600 06007KT P6SM SCT060
     FM302100 18011KT P6SM SCT060=



000
FTUS41 KOKX 300000 RRA
TAFBDR
TAF
KBDR 300008Z 3000/3024 30005KT P6SM SCT070
     FM300200 VRB03KT P6SM SCT060
     FM301700 20009KT P6SM SCT060=



000
FTUS41 KOKX 300000 RRA
TAFISP
TAF
KISP 300008Z 3000/3024 30008KT P6SM BKN070
     FM300100 21006KT P6SM SCT060
     FM300300 VRB03KT P6SM SCT060
     FM301800 21009KT P6SM SCT060=



000
FTUS41 KOKX 300000 RRA
TAFGON
TAF
KGON 300008Z 3000/3024 VRB03KT P6SM SCT070
     FM301700 22008KT P6SM SCT060=



000
FTUS41 KOKX 300000 RRA
TAFTEB
TAF
KTEB 300008Z 3000/3024 31006KT P6SM SCT080
     FM300300 VRB03KT P6SM SCT060
     FM301600 23007KT P6SM SCT060=



000
FTUS41 KOKX 300000 RRA
TAFJFK
TAF
KJFK 300008Z 3000/3106 30008KT P6SM SCT080
     FM300500 VRB04KT P6SM SCT070
     FM301600 22007KT P6SM SCT060
     FM301800 18013KT P6SM SCT060
     FM310200 23006KT P6SM SCT060=



    US Dept of Commerce
    National Oceanic and Atmospheric Administration
    National Weather Service
    1325 East West Highway
    Silver Spring, MD 20910
    Page Author: NWS Internet Services Team
Disclaimer
Information Quality
Credits
Glossary
Privacy Policy
Freedom of Information Act (FOIA)
About Us
Career Opportunities